Time;durP1;ratioP1;P1;durP2;ratioP2;P2;SDS_P1;SDS_P2;PMS_P1;PMS_P2;Temp;Humidity;BMP_temperature;BMP_pressure;BME280_temperature;BME280_humidity;BME280_pressure;Samples;Min_cycle;Max_cycle;Signal;HPM_P1;HPM_P2
2021/03/31 00:01:35;;;;;;;1.70;1.60;;;;;;;19.45;44.72;101382.91;;;;-55
2021/03/31 00:04:35;;;;;;;2.35;1.65;;;;;;;19.44;44.72;101383.77;;;;-55
2021/03/31 00:07:35;;;;;;;1.78;1.65;;;;;;;19.42;44.74;101375.55;;;;-55
2021/03/31 00:10:35;;;;;;;1.85;1.65;;;;;;;19.41;44.71;101369.42;;;;-55
2021/03/31 00:13:35;;;;;;;3.76;1.85;;;;;;;19.40;44.69;101364.58;;;;-55
2021/03/31 00:16:35;;;;;;;2.04;1.77;;;;;;;19.38;44.69;101361.56;;;;-55
2021/03/31 00:19:35;;;;;;;2.41;1.88;;;;;;;19.38;44.72;101360.18;;;;-55
2021/03/31 00:22:35;;;;;;;3.00;1.90;;;;;;;19.36;44.73;101357.30;;;;-55
2021/03/31 00:25:35;;;;;;;2.16;1.74;;;;;;;19.35;44.72;101352.78;;;;-55
2021/03/31 00:28:35;;;;;;;2.24;1.77;;;;;;;19.34;44.74;101348.36;;;;-56
2021/03/31 00:31:35;;;;;;;1.90;1.70;;;;;;;19.33;44.72;101344.20;;;;-55
2021/03/31 00:34:34;;;;;;;1.81;1.70;;;;;;;19.32;44.75;101349.33;;;;-55
2021/03/31 00:37:35;;;;;;;1.97;1.77;;;;;;;19.31;44.74;101340.83;;;;-55
2021/03/31 00:40:35;;;;;;;2.65;1.90;;;;;;;19.30;44.75;101343.75;;;;-55
2021/03/31 00:43:35;;;;;;;3.10;1.79;;;;;;;19.28;44.77;101339.32;;;;-54
2021/03/31 00:46:35;;;;;;;2.12;1.82;;;;;;;19.28;44.77;101339.48;;;;-54
2021/03/31 00:49:35;;;;;;;1.90;1.80;;;;;;;19.27;44.76;101339.13;;;;-55
2021/03/31 00:52:35;;;;;;;1.83;1.66;;;;;;;19.26;44.78;101336.40;;;;-55
2021/03/31 00:55:35;;;;;;;1.88;1.70;;;;;;;19.26;44.79;101336.19;;;;-55
2021/03/31 00:58:35;;;;;;;1.91;1.73;;;;;;;19.24;44.77;101332.98;;;;-55
2021/03/31 01:01:35;;;;;;;2.51;1.72;;;;;;;19.23;44.77;101328.71;;;;-57
2021/03/31 01:04:35;;;;;;;1.97;1.80;;;;;;;19.23;44.73;101323.92;;;;-57
2021/03/31 01:07:35;;;;;;;1.87;1.75;;;;;;;19.23;44.79;101323.34;;;;-57
2021/03/31 01:10:35;;;;;;;1.71;1.61;;;;;;;19.22;44.78;101323.17;;;;-57
2021/03/31 01:13:35;;;;;;;2.21;1.83;;;;;;;19.21;44.82;101322.66;;;;-58
2021/03/31 01:16:35;;;;;;;1.80;1.70;;;;;;;19.19;44.82;101312.53;;;;-57
2021/03/31 01:19:35;;;;;;;1.97;1.77;;;;;;;19.18;44.79;101313.18;;;;-57
2021/03/31 01:23:35;;;;;;;1.82;1.71;;;;;;;19.17;44.79;101308.83;;;;-57
2021/03/31 01:27:35;;;;;;;1.76;1.61;;;;;;;19.15;44.82;101312.81;;;;-57
2021/03/31 01:30:35;;;;;;;1.91;1.76;;;;;;;19.14;44.80;101313.42;;;;-55
2021/03/31 01:33:35;;;;;;;1.88;1.70;;;;;;;19.14;44.84;101309.52;;;;-54
2021/03/31 01:36:35;;;;;;;1.90;1.70;;;;;;;19.13;44.80;101307.77;;;;-54
2021/03/31 01:39:35;;;;;;;2.05;1.73;;;;;;;19.12;44.80;101300.45;;;;-55
2021/03/31 01:42:35;;;;;;;2.05;1.89;;;;;;;19.11;44.78;101298.75;;;;-56
2021/03/31 01:45:35;;;;;;;2.09;1.89;;;;;;;19.10;44.79;101297.89;;;;-55
2021/03/31 01:48:35;;;;;;;1.87;1.68;;;;;;;19.09;44.80;101291.77;;;;-55
2021/03/31 01:51:35;;;;;;;1.95;1.79;;;;;;;19.08;44.80;101289.89;;;;-56
2021/03/31 01:55:05;;;;;;;2.16;1.79;;;;;;;19.08;44.76;101290.05;;;;-55
2021/03/31 01:57:35;;;;;;;2.05;1.86;;;;;;;19.07;44.76;101288.22;;;;-55
2021/03/31 02:00:35;;;;;;;2.48;1.70;;;;;;;19.06;44.79;101289.03;;;;-57
2021/03/31 02:03:35;;;;;;;1.95;1.77;;;;;;;19.05;44.77;101297.39;;;;-57
2021/03/31 02:06:35;;;;;;;2.47;1.70;;;;;;;19.04;44.73;101298.01;;;;-57
2021/03/31 02:09:35;;;;;;;1.96;1.60;;;;;;;19.04;44.77;101294.43;;;;-57
2021/03/31 02:12:35;;;;;;;1.81;1.70;;;;;;;19.03;44.76;101293.82;;;;-57
2021/03/31 02:15:35;;;;;;;1.87;1.71;;;;;;;19.02;44.76;101293.73;;;;-57
2021/03/31 02:18:35;;;;;;;1.66;1.56;;;;;;;19.01;44.77;101289.67;;;;-57
2021/03/31 02:21:35;;;;;;;2.58;1.89;;;;;;;19.02;44.76;101293.98;;;;-56
2021/03/31 02:24:35;;;;;;;2.07;1.87;;;;;;;19.01;44.75;101291.34;;;;-57
2021/03/31 02:27:35;;;;;;;1.99;1.81;;;;;;;18.99;44.75;101283.38;;;;-57
2021/03/31 02:30:35;;;;;;;1.91;1.62;;;;;;;18.98;44.74;101282.77;;;;-54
2021/03/31 02:33:35;;;;;;;1.97;1.69;;;;;;;18.97;44.75;101284.63;;;;-54
2021/03/31 02:36:35;;;;;;;2.12;1.89;;;;;;;18.96;44.75;101279.63;;;;-54
2021/03/31 02:39:35;;;;;;;2.13;1.91;;;;;;;18.96;44.77;101277.27;;;;-54
2021/03/31 02:42:35;;;;;;;1.81;1.69;;;;;;;18.95;44.77;101270.77;;;;-55
2021/03/31 02:45:35;;;;;;;1.70;1.60;;;;;;;18.94;44.78;101264.56;;;;-56
2021/03/31 02:48:35;;;;;;;1.85;1.73;;;;;;;18.93;44.78;101264.31;;;;-57
2021/03/31 02:51:35;;;;;;;1.94;1.77;;;;;;;18.93;44.77;101260.41;;;;-57
2021/03/31 02:54:35;;;;;;;2.02;1.77;;;;;;;18.92;44.78;101260.86;;;;-54
2021/03/31 02:57:35;;;;;;;1.73;1.63;;;;;;;18.92;44.76;101263.05;;;;-55
2021/03/31 03:00:35;;;;;;;1.76;1.66;;;;;;;18.91;44.76;101263.05;;;;-55
2021/03/31 03:03:35;;;;;;;1.76;1.66;;;;;;;18.90;44.78;101262.84;;;;-57
2021/03/31 03:06:35;;;;;;;1.83;1.73;;;;;;;18.90;44.77;101259.19;;;;-54
2021/03/31 03:09:35;;;;;;;2.01;1.81;;;;;;;18.88;44.79;101256.72;;;;-54
2021/03/31 03:12:35;;;;;;;1.80;1.70;;;;;;;18.88;44.78;101260.94;;;;-55
2021/03/31 03:15:35;;;;;;;1.77;1.61;;;;;;;18.87;44.78;101260.61;;;;-54
2021/03/31 03:18:35;;;;;;;2.09;1.76;;;;;;;18.86;44.77;101258.81;;;;-55
2021/03/31 03:21:35;;;;;;;1.80;1.70;;;;;;;18.85;44.77;101264.14;;;;-55
2021/03/31 03:24:35;;;;;;;2.15;1.91;;;;;;;18.86;44.76;101265.12;;;;-54
2021/03/31 03:27:35;;;;;;;2.27;1.87;;;;;;;18.84;44.80;101263.97;;;;-55
2021/03/31 03:30:35;;;;;;;1.98;1.78;;;;;;;18.83;44.78;101265.72;;;;-56
2021/03/31 03:33:35;;;;;;;2.00;1.80;;;;;;;18.83;44.77;101271.41;;;;-55
2021/03/31 03:36:35;;;;;;;2.04;1.80;;;;;;;18.83;44.77;101268.07;;;;-56
2021/03/31 03:39:35;;;;;;;1.94;1.74;;;;;;;18.82;44.77;101268.63;;;;-54
2021/03/31 03:42:35;;;;;;;1.75;1.64;;;;;;;18.82;44.79;101268.03;;;;-54
2021/03/31 03:45:35;;;;;;;1.94;1.80;;;;;;;18.81;44.78;101270.55;;;;-54
2021/03/31 03:48:35;;;;;;;1.97;1.78;;;;;;;18.80;44.77;101270.30;;;;-54
2021/03/31 03:51:35;;;;;;;2.15;1.95;;;;;;;18.79;44.76;101270.25;;;;-55
2021/03/31 03:54:35;;;;;;;1.81;1.70;;;;;;;18.78;44.77;101270.46;;;;-54
2021/03/31 03:57:35;;;;;;;2.17;1.83;;;;;;;18.78;44.80;101265.06;;;;-55
2021/03/31 04:00:35;;;;;;;1.87;1.73;;;;;;;18.77;44.78;101261.33;;;;-55
2021/03/31 04:03:35;;;;;;;2.92;1.70;;;;;;;18.75;44.79;101262.66;;;;-55
2021/03/31 04:06:35;;;;;;;1.80;1.70;;;;;;;18.76;44.77;101264.65;;;;-57
2021/03/31 04:09:35;;;;;;;2.10;1.89;;;;;;;18.75;44.79;101266.31;;;;-57
2021/03/31 04:12:35;;;;;;;1.99;1.82;;;;;;;18.75;44.79;101263.63;;;;-54
2021/03/31 04:15:35;;;;;;;2.17;1.80;;;;;;;18.74;44.77;101265.33;;;;-54
2021/03/31 04:18:35;;;;;;;2.00;1.80;;;;;;;18.74;44.79;101260.22;;;;-54
2021/03/31 04:21:35;;;;;;;1.96;1.77;;;;;;;18.73;44.78;101257.42;;;;-55
2021/03/31 04:24:35;;;;;;;1.99;1.70;;;;;;;18.72;44.78;101254.24;;;;-55
2021/03/31 04:27:35;;;;;;;2.08;1.79;;;;;;;18.72;44.78;101257.30;;;;-55
2021/03/31 04:30:35;;;;;;;1.86;1.76;;;;;;;18.71;44.80;101255.19;;;;-55
2021/03/31 04:33:35;;;;;;;1.92;1.78;;;;;;;18.70;44.78;101258.83;;;;-56
2021/03/31 04:36:35;;;;;;;1.84;1.74;;;;;;;18.70;44.78;101259.31;;;;-54
2021/03/31 04:39:35;;;;;;;2.10;1.90;;;;;;;18.69;44.78;101257.17;;;;-55
2021/03/31 04:42:35;;;;;;;1.79;1.69;;;;;;;18.69;44.78;101254.57;;;;-55
2021/03/31 04:45:35;;;;;;;1.77;1.67;;;;;;;18.68;44.79;101253.19;;;;-55
2021/03/31 04:48:35;;;;;;;2.25;1.84;;;;;;;18.67;44.81;101254.69;;;;-57
2021/03/31 04:51:35;;;;;;;8.18;2.56;;;;;;;18.58;43.62;101254.41;;;;-58
2021/03/31 04:54:35;;;;;;;7.95;3.55;;;;;;;18.34;42.60;101252.70;;;;-57
2021/03/31 04:57:35;;;;;;;5.32;3.68;;;;;;;18.18;42.41;101250.84;;;;-57
2021/03/31 05:00:35;;;;;;;5.14;3.96;;;;;;;18.08;42.32;101252.27;;;;-57
2021/03/31 05:03:35;;;;;;;6.35;4.00;;;;;;;17.94;42.10;101257.17;;;;-51
2021/03/31 05:06:35;;;;;;;5.93;4.07;;;;;;;17.95;42.41;101256.24;;;;-53
2021/03/31 05:09:35;;;;;;;5.43;3.80;;;;;;;18.10;42.92;101257.17;;;;-50
2021/03/31 05:12:34;;;;;;;6.09;3.45;;;;;;;18.16;43.14;101255.30;;;;-50
2021/03/31 05:15:35;;;;;;;5.41;3.44;;;;;;;18.23;43.14;101256.09;;;;-50
2021/03/31 05:18:35;;;;;;;4.71;3.09;;;;;;;18.26;43.19;101253.36;;;;-50
2021/03/31 05:21:35;;;;;;;3.89;3.07;;;;;;;18.29;43.29;101251.55;;;;-57
2021/03/31 05:24:35;;;;;;;4.85;3.10;;;;;;;18.31;43.31;101249.81;;;;-57
2021/03/31 05:27:35;;;;;;;3.45;2.89;;;;;;;18.33;43.40;101254.48;;;;-57
2021/03/31 05:30:35;;;;;;;4.46;3.08;;;;;;;18.35;43.47;101259.72;;;;-56
2021/03/31 05:33:35;;;;;;;3.68;3.00;;;;;;;18.35;43.52;101259.16;;;;-57
2021/03/31 05:36:34;;;;;;;3.09;2.73;;;;;;;18.37;43.58;101265.05;;;;-57
2021/03/31 05:39:35;;;;;;;2.77;2.32;;;;;;;18.36;43.64;101267.20;;;;-57
2021/03/31 05:42:35;;;;;;;4.09;2.86;;;;;;;18.37;43.67;101269.76;;;;-51
2021/03/31 05:45:35;;;;;;;3.56;2.48;;;;;;;18.38;43.72;101270.33;;;;-51
2021/03/31 05:48:35;;;;;;;3.37;2.53;;;;;;;18.38;43.74;101270.17;;;;-50
2021/03/31 05:51:35;;;;;;;2.84;2.63;;;;;;;18.39;43.77;101268.75;;;;-51
2021/03/31 05:54:35;;;;;;;3.06;2.54;;;;;;;18.38;43.84;101265.22;;;;-51
2021/03/31 05:57:35;;;;;;;2.96;2.66;;;;;;;18.38;43.86;101262.54;;;;-50
2021/03/31 06:00:35;;;;;;;3.34;2.49;;;;;;;18.38;43.88;101260.03;;;;-50
2021/03/31 06:03:35;;;;;;;2.65;2.43;;;;;;;18.39;43.91;101261.92;;;;-50
2021/03/31 06:06:35;;;;;;;2.61;2.40;;;;;;;18.38;43.93;101262.47;;;;-56
2021/03/31 06:09:34;;;;;;;2.42;2.22;;;;;;;18.40;43.94;101263.31;;;;-57
2021/03/31 06:12:36;;;;;;;2.57;2.30;;;;;;;18.38;43.96;101257.92;;;;-57
2021/03/31 06:15:36;;;;;;;2.44;2.21;;;;;;;18.38;43.99;101254.75;;;;-57
2021/03/31 06:18:35;;;;;;;5.68;2.14;;;;;;;18.38;44.01;101255.64;;;;-54
2021/03/31 06:21:35;;;;;;;2.42;2.21;;;;;;;18.38;44.03;101254.67;;;;-53
2021/03/31 06:24:42;;;;;;;3.06;2.41;;;;;;;18.38;44.04;101257.59;;;;-53
2021/03/31 06:27:35;;;;;;;2.98;2.29;;;;;;;18.38;44.05;101259.13;;;;-53
2021/03/31 06:30:35;;;;;;;2.49;2.09;;;;;;;18.39;44.07;101263.39;;;;-53
2021/03/31 06:33:35;;;;;;;2.91;2.20;;;;;;;18.38;44.09;101263.76;;;;-50
2021/03/31 06:36:35;;;;;;;2.74;2.37;;;;;;;18.38;44.08;101261.08;;;;-50
2021/03/31 06:39:35;;;;;;;2.67;2.31;;;;;;;18.38;44.13;101260.59;;;;-50
2021/03/31 06:42:35;;;;;;;2.37;2.17;;;;;;;18.37;44.16;101261.23;;;;-51
2021/03/31 06:45:37;;;;;;;2.48;2.15;;;;;;;18.38;44.14;101260.91;;;;-51
2021/03/31 06:48:41;;;;;;;2.47;2.11;;;;;;;18.37;44.15;101258.80;;;;-50
2021/03/31 06:51:35;;;;;;;2.31;2.11;;;;;;;18.38;44.17;101260.27;;;;-50
2021/03/31 06:54:35;;;;;;;2.23;2.03;;;;;;;18.38;44.16;101258.16;;;;-52
2021/03/31 06:57:35;;;;;;;2.42;2.20;;;;;;;18.37;44.19;101257.91;;;;-51
2021/03/31 07:00:35;;;;;;;2.58;2.18;;;;;;;18.37;44.20;101256.29;;;;-51
2021/03/31 07:03:35;;;;;;;2.42;2.01;;;;;;;18.38;44.16;101260.02;;;;-51
2021/03/31 07:06:35;;;;;;;2.84;2.21;;;;;;;18.37;44.18;101257.74;;;;-51
2021/03/31 07:09:35;;;;;;;2.32;2.12;;;;;;;18.37;44.20;101260.67;;;;-51
2021/03/31 07:12:35;;;;;;;2.81;2.19;;;;;;;18.38;44.21;101261.56;;;;-57
2021/03/31 07:15:35;;;;;;;2.51;2.16;;;;;;;18.37;44.20;101260.66;;;;-58
2021/03/31 07:18:35;;;;;;;3.53;2.19;;;;;;;18.37;44.28;101261.39;;;;-50
2021/03/31 07:21:35;;;;;;;2.45;2.17;;;;;;;18.38;44.23;101261.33;;;;-50
2021/03/31 07:24:35;;;;;;;2.13;1.93;;;;;;;18.37;44.24;101258.39;;;;-53
2021/03/31 07:27:35;;;;;;;2.20;2.00;;;;;;;18.37;44.23;101260.98;;;;-57
2021/03/31 07:30:35;;;;;;;2.30;1.97;;;;;;;18.37;44.24;101261.08;;;;-57
2021/03/31 07:33:35;;;;;;;2.19;1.99;;;;;;;18.37;44.25;101262.45;;;;-57
2021/03/31 07:36:35;;;;;;;2.33;2.13;;;;;;;18.36;44.25;101259.98;;;;-51
2021/03/31 07:39:35;;;;;;;2.26;1.95;;;;;;;18.37;44.22;101263.18;;;;-50
2021/03/31 07:42:35;;;;;;;2.16;1.96;;;;;;;18.37;44.25;101262.86;;;;-50
2021/03/31 07:45:35;;;;;;;2.55;2.06;;;;;;;18.37;44.27;101266.91;;;;-51
2021/03/31 07:48:37;;;;;;;2.17;1.97;;;;;;;18.37;44.28;101272.52;;;;-51
2021/03/31 07:51:34;;;;;;;14.05;2.42;;;;;;;18.36;44.38;101276.56;;;;-53
2021/03/31 07:54:35;;;;;;;2.40;2.19;;;;;;;18.39;44.44;101274.91;;;;-59
2021/03/31 07:57:36;;;;;;;2.10;1.90;;;;;;;18.42;44.60;101274.89;;;;-61
2021/03/31 08:00:35;;;;;;;2.25;1.92;;;;;;;18.45;44.67;101276.20;;;;-59
2021/03/31 08:03:35;;;;;;;2.28;2.08;;;;;;;18.48;44.69;101276.17;;;;-58
2021/03/31 08:06:35;;;;;;;2.91;2.20;;;;;;;18.53;44.76;101275.50;;;;-51
2021/03/31 08:09:36;;;;;;;2.82;2.06;;;;;;;18.58;44.68;101276.25;;;;-50
2021/03/31 08:12:35;;;;;;;2.58;1.98;;;;;;;18.63;44.41;101275.62;;;;-49
2021/03/31 08:15:34;;;;;;;2.29;2.00;;;;;;;18.67;44.51;101277.01;;;;-49
2021/03/31 08:18:35;;;;;;;2.11;1.91;;;;;;;18.72;44.54;101275.93;;;;-48
2021/03/31 08:21:35;;;;;;;2.49;2.04;;;;;;;18.75;44.48;101271.84;;;;-48
2021/03/31 08:24:35;;;;;;;3.41;2.00;;;;;;;18.80;44.42;101273.55;;;;-48
2021/03/31 08:27:35;;;;;;;2.77;2.05;;;;;;;18.82;44.44;101270.63;;;;-51
2021/03/31 08:30:35;;;;;;;2.28;2.00;;;;;;;18.85;44.30;101267.30;;;;-51
2021/03/31 08:33:35;;;;;;;3.05;1.82;;;;;;;18.88;44.36;101268.73;;;;-50
2021/03/31 08:36:34;;;;;;;2.01;1.90;;;;;;;18.89;44.38;101267.64;;;;-51
2021/03/31 08:39:35;;;;;;;2.15;1.95;;;;;;;18.92;44.29;101263.54;;;;-51
2021/03/31 08:42:35;;;;;;;1.98;1.79;;;;;;;18.94;44.36;101259.20;;;;-51
2021/03/31 08:45:37;;;;;;;2.10;1.90;;;;;;;18.96;44.33;101256.81;;;;-51
2021/03/31 08:48:34;;;;;;;1.97;1.80;;;;;;;18.99;44.25;101256.32;;;;-51
2021/03/31 08:51:35;;;;;;;1.99;1.79;;;;;;;19.00;44.23;101252.10;;;;-51
2021/03/31 08:54:35;;;;;;;2.19;1.92;;;;;;;19.04;44.36;101255.19;;;;-51
2021/03/31 08:57:35;;;;;;;5.43;1.90;;;;;;;19.06;44.29;101254.26;;;;-51
2021/03/31 09:00:34;;;;;;;2.07;1.75;;;;;;;19.07;44.30;101246.87;;;;-53
2021/03/31 09:03:35;;;;;;;2.00;1.80;;;;;;;19.08;44.17;101244.15;;;;-51
2021/03/31 09:06:35;;;;;;;8.29;2.21;;;;;;;19.11;44.49;101241.88;;;;-51
2021/03/31 09:09:35;;;;;;;3.29;2.06;;;;;;;19.13;44.70;101240.98;;;;-61
2021/03/31 09:12:34;;;;;;;4.89;2.33;;;;;;;19.14;44.15;101233.39;;;;-59
2021/03/31 09:15:35;;;;;;;2.19;1.96;;;;;;;19.17;44.24;101230.02;;;;-58
2021/03/31 09:18:35;;;;;;;3.15;1.82;;;;;;;19.18;44.09;101222.25;;;;-58
2021/03/31 09:21:36;;;;;;;2.87;1.87;;;;;;;19.19;44.16;101219.98;;;;-53
2021/03/31 09:24:35;;;;;;;2.44;1.87;;;;;;;19.21;44.17;101220.19;;;;-53
2021/03/31 09:27:35;;;;;;;2.00;1.80;;;;;;;19.22;44.13;101215.02;;;;-54
2021/03/31 09:30:35;;;;;;;3.22;1.72;;;;;;;19.24;44.10;101216.03;;;;-54
2021/03/31 09:33:36;;;;;;;3.01;1.91;;;;;;;19.24;44.23;101214.58;;;;-54
2021/03/31 09:36:35;;;;;;;3.22;1.91;;;;;;;19.27;44.03;101210.80;;;;-54
2021/03/31 09:39:35;;;;;;;2.34;1.78;;;;;;;19.28;44.07;101204.41;;;;-50
2021/03/31 09:42:35;;;;;;;4.13;1.90;;;;;;;19.29;43.98;101200.19;;;;-51
2021/03/31 09:45:35;;;;;;;2.49;1.79;;;;;;;19.31;44.04;101196.81;;;;-59
2021/03/31 09:48:34;;;;;;;2.18;1.80;;;;;;;19.33;44.02;101200.91;;;;-58
2021/03/31 09:51:35;;;;;;;2.03;1.81;;;;;;;19.34;43.98;101197.83;;;;-50
2021/03/31 09:54:35;;;;;;;2.51;1.84;;;;;;;19.35;44.08;101195.03;;;;-50
2021/03/31 09:57:35;;;;;;;3.70;1.85;;;;;;;19.37;44.07;101192.78;;;;-53
2021/03/31 10:00:35;;;;;;;2.24;1.90;;;;;;;19.37;43.99;101187.42;;;;-54
2021/03/31 10:03:35;;;;;;;1.98;1.74;;;;;;;19.41;44.07;101189.94;;;;-58
2021/03/31 10:06:35;;;;;;;1.81;1.65;;;;;;;19.41;43.98;101181.48;;;;-52
2021/03/31 10:09:34;;;;;;;1.81;1.65;;;;;;;19.42;44.04;101178.80;;;;-58
2021/03/31 10:12:35;;;;;;;2.31;1.83;;;;;;;19.44;44.03;101176.97;;;;-54
2021/03/31 10:15:35;;;;;;;3.03;1.79;;;;;;;19.44;43.99;101168.36;;;;-54
2021/03/31 10:18:34;;;;;;;1.73;1.60;;;;;;;19.46;43.95;101167.66;;;;-50
2021/03/31 10:21:35;;;;;;;1.85;1.67;;;;;;;19.47;44.03;101165.82;;;;-50
2021/03/31 10:24:35;;;;;;;3.37;1.64;;;;;;;19.51;44.31;101158.63;;;;-60
2021/03/31 10:27:35;;;;;;;3.83;1.80;;;;;;;19.55;44.67;101157.19;;;;-46
2021/03/31 10:30:34;;;;;;;2.81;1.70;;;;;;;19.58;44.56;101153.64;;;;-54
2021/03/31 10:33:34;;;;;;;2.32;1.70;;;;;;;19.61;44.44;101151.24;;;;-54
2021/03/31 10:36:35;;;;;;;3.88;1.90;;;;;;;19.65;44.41;101150.94;;;;-49
2021/03/31 10:39:58;;;;;;;2.14;1.81;;;;;;;19.71;44.76;101146.00;;;;-58
2021/03/31 10:48:39;;;;;;;2.57;1.85;;;;;;;19.75;44.92;101140.94;;;;-59
2021/03/31 10:51:43;;;;;;;14.31;1.83;;;;;;;19.78;44.58;101138.56;;;;-57
2021/03/31 10:54:34;;;;;;;3.09;1.84;;;;;;;19.79;44.80;101130.35;;;;-56
2021/03/31 10:57:35;;;;;;;1.95;1.70;;;;;;;19.83;44.85;101125.13;;;;-55
2021/03/31 11:00:35;;;;;;;3.75;1.93;;;;;;;19.83;44.58;101121.55;;;;-56
2021/03/31 11:03:35;;;;;;;3.75;1.93;;;;;;;19.84;44.40;101121.83;;;;-56
2021/03/31 11:06:35;;;;;;;1.87;1.67;;;;;;;19.83;44.15;101119.92;;;;-60
2021/03/31 11:09:35;;;;;;;3.18;1.84;;;;;;;19.82;44.18;101116.99;;;;-59
2021/03/31 11:12:35;;;;;;;2.07;1.65;;;;;;;19.82;44.05;101112.52;;;;-60
2021/03/31 11:15:35;;;;;;;2.33;1.69;;;;;;;19.83;43.95;101107.88;;;;-56
2021/03/31 11:18:44;;;;;;;2.66;1.93;;;;;;;19.84;44.06;101106.20;;;;-52
2021/03/31 11:27:35;;;;;;;1.97;1.61;;;;;;;19.86;44.08;101097.67;;;;-56
2021/03/31 11:30:35;;;;;;;2.75;1.61;;;;;;;19.85;43.97;101085.06;;;;-53
2021/03/31 11:33:35;;;;;;;2.83;1.78;;;;;;;19.86;43.94;101084.00;;;;-60
2021/03/31 11:36:34;;;;;;;2.13;1.70;;;;;;;19.86;44.01;101079.48;;;;-56
2021/03/31 11:39:34;;;;;;;2.27;1.79;;;;;;;19.87;43.93;101080.20;;;;-59
2021/03/31 11:42:35;;;;;;;1.79;1.64;;;;;;;19.87;43.90;101072.31;;;;-60
2021/03/31 11:45:35;;;;;;;1.87;1.71;;;;;;;19.87;43.88;101065.89;;;;-56
2021/03/31 11:48:34;;;;;;;2.32;1.65;;;;;;;19.88;43.84;101058.20;;;;-60
2021/03/31 11:51:35;;;;;;;2.38;1.77;;;;;;;19.89;43.87;101057.22;;;;-60
2021/03/31 11:54:35;;;;;;;2.09;1.79;;;;;;;19.90;43.90;101049.90;;;;-60
2021/03/31 11:57:34;;;;;;;2.12;1.84;;;;;;;19.90;43.88;101041.63;;;;-56
2021/03/31 12:00:37;;;;;;;2.11;1.61;;;;;;;19.91;43.88;101041.47;;;;-56
2021/03/31 12:03:35;;;;;;;1.83;1.64;;;;;;;19.91;43.81;101036.91;;;;-56
2021/03/31 12:06:35;;;;;;;2.32;1.83;;;;;;;19.91;43.76;101028.05;;;;-56
2021/03/31 12:09:39;;;;;;;2.28;1.60;;;;;;;19.92;43.80;101027.23;;;;-56
2021/03/31 12:12:35;;;;;;;1.69;1.56;;;;;;;19.92;43.87;101024.14;;;;-56
2021/03/31 12:15:35;;;;;;;2.15;1.73;;;;;;;19.92;43.81;101018.28;;;;-56
2021/03/31 12:18:34;;;;;;;2.18;1.49;;;;;;;19.93;43.79;101016.44;;;;-55
2021/03/31 12:21:34;;;;;;;1.99;1.70;;;;;;;19.94;43.83;101013.87;;;;-55
2021/03/31 12:24:34;;;;;;;2.00;1.80;;;;;;;19.94;43.81;101012.21;;;;-56
2021/03/31 12:27:35;;;;;;;2.12;1.75;;;;;;;19.95;43.79;101008.50;;;;-56
2021/03/31 12:30:34;;;;;;;1.95;1.73;;;;;;;19.95;43.77;100999.47;;;;-55
2021/03/31 12:33:34;;;;;;;1.89;1.69;;;;;;;19.95;43.80;100992.80;;;;-56
2021/03/31 12:36:35;;;;;;;1.71;1.60;;;;;;;19.96;43.76;100989.13;;;;-60
2021/03/31 12:39:35;;;;;;;1.95;1.69;;;;;;;19.97;43.77;100987.94;;;;-60
2021/03/31 12:42:34;;;;;;;1.92;1.60;;;;;;;19.97;43.78;100983.47;;;;-60
2021/03/31 12:45:35;;;;;;;1.88;1.65;;;;;;;19.96;43.76;100978.27;;;;-53
2021/03/31 12:48:35;;;;;;;2.06;1.57;;;;;;;20.01;44.35;100973.75;;;;-58
2021/03/31 12:51:36;;;;;;;2.94;1.70;;;;;;;20.04;44.85;100965.48;;;;-57
2021/03/31 12:54:38;;;;;;;3.05;1.69;;;;;;;20.06;44.75;100958.83;;;;-60
2021/03/31 12:57:35;;;;;;;2.07;1.51;;;;;;;20.09;44.93;100954.09;;;;-55
2021/03/31 13:03:34;;;;;;;3.80;1.71;;;;;;;20.15;44.86;100944.84;;;;-60
2021/03/31 13:09:52;;;;;;;2.31;1.73;;;;;;;20.21;45.22;100944.84;;;;-47
2021/03/31 13:12:41;;;;;;;4.77;1.65;;;;;;;20.21;44.74;100939.55;;;;-51
2021/03/31 13:24:42;;;;;;;3.44;1.78;;;;;;;20.28;45.09;100927.35;;;;-55
2021/03/31 13:27:54;;;;;;;1.92;1.74;;;;;;;20.31;45.14;100918.74;;;;-56
2021/03/31 13:30:43;;;;;;;3.81;1.78;;;;;;;20.29;44.53;100914.00;;;;-56
2021/03/31 13:33:36;;;;;;;2.63;1.75;;;;;;;20.29;44.50;100911.88;;;;-52
2021/03/31 13:36:40;;;;;;;2.12;1.79;;;;;;;20.27;44.35;100905.95;;;;-52
2021/03/31 13:39:37;;;;;;;2.79;1.70;;;;;;;20.26;44.27;100902.27;;;;-52
2021/03/31 13:42:35;;;;;;;1.73;1.61;;;;;;;20.26;44.19;100899.41;;;;-55
2021/03/31 13:45:34;;;;;;;1.95;1.75;;;;;;;20.26;44.23;100892.73;;;;-55
2021/03/31 13:48:37;;;;;;;1.90;1.71;;;;;;;20.26;44.12;100890.06;;;;-52
2021/03/31 13:51:43;;;;;;;1.64;1.54;;;;;;;20.26;44.10;100886.16;;;;-52
2021/03/31 13:54:39;;;;;;;1.93;1.57;;;;;;;20.25;44.06;100878.58;;;;-52
2021/03/31 13:57:36;;;;;;;1.74;1.63;;;;;;;20.25;44.11;100871.15;;;;-52
2021/03/31 14:00:36;;;;;;;1.81;1.71;;;;;;;20.25;44.04;100861.49;;;;-52
2021/03/31 14:03:35;;;;;;;2.60;1.51;;;;;;;20.26;44.04;100857.83;;;;-56
2021/03/31 14:10:02;;;;;;;1.87;1.62;;;;;;;20.26;44.04;100846.92;;;;-56
2021/03/31 14:39:39;;;;;;;1.55;1.45;;;;;;;20.31;43.76;100810.98;;;;-55
2021/03/31 14:42:39;;;;;;;1.61;1.50;;;;;;;20.30;43.76;100805.12;;;;-56
2021/03/31 14:45:39;;;;;;;2.12;1.60;;;;;;;20.31;43.80;100803.73;;;;-55
2021/03/31 14:48:40;;;;;;;2.11;1.49;;;;;;;20.31;43.72;100802.92;;;;-55
2021/03/31 14:51:09;;;;;;;2.03;1.75;;;;;;;20.30;43.75;100798.37;;;;-55
2021/03/31 14:57:14;;;;;;;3.58;1.65;;;;;;;20.28;43.94;100791.27;;;;-56
2021/03/31 15:00:09;;;;;;;7.43;2.07;;;;;;;20.26;44.19;100790.03;;;;-53
2021/03/31 15:03:09;;;;;;;2.58;2.02;;;;;;;20.23;44.42;100786.48;;;;-53
2021/03/31 15:06:09;;;;;;;5.27;1.99;;;;;;;20.25;44.11;100782.11;;;;-51
2021/03/31 15:09:09;;;;;;;4.56;2.02;;;;;;;20.27;44.73;100780.45;;;;-51
2021/03/31 15:12:39;;;;;;;2.17;1.85;;;;;;;20.29;45.01;100773.60;;;;-51
2021/03/31 15:15:39;;;;;;;3.50;1.93;;;;;;;20.33;44.83;100771.59;;;;-55
2021/03/31 15:18:09;;;;;;;3.65;1.75;;;;;;;20.34;45.26;100769.91;;;;-59
2021/03/31 15:21:12;;;;;;;7.08;1.92;;;;;;;20.37;45.34;100766.02;;;;-56
2021/03/31 15:24:09;;;;;;;3.34;1.82;;;;;;;20.37;44.97;100763.41;;;;-56
2021/03/31 15:27:39;;;;;;;3.67;1.79;;;;;;;20.40;45.30;100756.58;;;;-57
2021/03/31 15:30:09;;;;;;;4.33;1.99;;;;;;;20.41;45.37;100759.53;;;;-64
2021/03/31 15:33:39;;;;;;;2.02;1.77;;;;;;;20.42;45.37;100758.50;;;;-63
2021/03/31 15:36:39;;;;;;;2.50;1.85;;;;;;;20.44;45.66;100758.33;;;;-64
2021/03/31 15:39:39;;;;;;;2.13;1.74;;;;;;;20.44;45.40;100750.70;;;;-57
2021/03/31 15:42:39;;;;;;;3.94;1.79;;;;;;;20.47;45.52;100746.15;;;;-57
2021/03/31 15:45:40;;;;;;;3.22;1.91;;;;;;;20.46;44.80;100745.99;;;;-56
2021/03/31 15:48:39;;;;;;;5.61;1.87;;;;;;;20.47;45.20;100748.91;;;;-53
2021/03/31 15:51:39;;;;;;;3.27;1.69;;;;;;;20.48;45.40;100746.17;;;;-49
2021/03/31 15:54:39;;;;;;;3.46;1.79;;;;;;;20.49;45.49;100742.00;;;;-50
2021/03/31 15:57:39;;;;;;;2.07;1.61;;;;;;;20.50;45.53;100741.84;;;;-50
2021/03/31 16:00:39;;;;;;;2.88;1.67;;;;;;;20.49;45.48;100740.30;;;;-61
2021/03/31 16:03:41;;;;;;;2.05;1.75;;;;;;;20.51;45.79;100738.28;;;;-56
2021/03/31 16:09:39;;;;;;;4.37;1.82;;;;;;;20.52;45.82;100734.69;;;;-51
2021/03/31 16:41:13;;;;;;;4.35;1.97;;;;;;;20.47;44.67;100717.33;;;;-61
2021/03/31 16:44:13;;;;;;;4.02;1.87;;;;;;;20.46;44.57;100716.11;;;;-59
2021/03/31 16:47:13;;;;;;;2.04;1.65;;;;;;;20.47;44.51;100715.22;;;;-59
2021/03/31 16:50:13;;;;;;;2.74;1.85;;;;;;;20.45;44.50;100712.11;;;;-60
2021/03/31 16:53:13;;;;;;;2.83;1.60;;;;;;;20.44;44.37;100712.44;;;;-61
2021/03/31 16:56:13;;;;;;;3.73;1.76;;;;;;;20.43;44.37;100710.55;;;;-62
2021/03/31 16:59:13;;;;;;;3.13;1.77;;;;;;;20.41;44.39;100710.20;;;;-51
2021/03/31 17:02:13;;;;;;;5.95;1.77;;;;;;;20.39;44.47;100705.23;;;;-51
2021/03/31 17:05:13;;;;;;;3.61;1.81;;;;;;;20.36;44.58;100702.29;;;;-55
2021/03/31 17:08:13;;;;;;;4.10;1.65;;;;;;;20.35;44.74;100703.16;;;;-52
2021/03/31 17:11:13;;;;;;;4.42;1.79;;;;;;;20.37;44.57;100698.62;;;;-57
2021/03/31 17:14:13;;;;;;;5.91;2.15;;;;;;;20.38;44.73;100696.49;;;;-53
2021/03/31 17:17:14;;;;;;;3.03;1.75;;;;;;;20.37;44.90;100692.83;;;;-58
2021/03/31 17:20:13;;;;;;;3.34;1.99;;;;;;;20.37;44.94;100692.84;;;;-54
2021/03/31 17:23:13;;;;;;;4.89;2.07;;;;;;;20.38;44.93;100691.07;;;;-55
2021/03/31 17:26:18;;;;;;;5.29;1.87;;;;;;;20.40;45.09;100689.62;;;;-57
2021/03/31 17:29:13;;;;;;;3.39;1.80;;;;;;;20.39;45.02;100689.10;;;;-57
2021/03/31 17:32:15;;;;;;;3.13;1.91;;;;;;;20.41;45.14;100687.82;;;;-55
2021/03/31 17:35:13;;;;;;;2.53;1.81;;;;;;;20.41;44.86;100689.13;;;;-50
2021/03/31 17:38:14;;;;;;;10.69;2.09;;;;;;;20.46;45.69;100690.36;;;;-50
2021/03/31 17:41:13;;;;;;;5.71;1.86;;;;;;;20.48;45.43;100690.30;;;;-54
2021/03/31 17:44:13;;;;;;;2.90;1.81;;;;;;;20.46;45.05;100687.45;;;;-54
2021/03/31 17:47:14;;;;;;;3.83;1.77;;;;;;;20.45;44.91;100683.85;;;;-54
2021/03/31 17:50:15;;;;;;;5.73;1.93;;;;;;;20.47;44.73;100686.88;;;;-55
2021/03/31 17:53:15;;;;;;;3.87;1.79;;;;;;;20.45;44.63;100688.02;;;;-54
2021/03/31 17:56:13;;;;;;;2.87;1.61;;;;;;;20.45;44.54;100684.50;;;;-53
2021/03/31 17:59:14;;;;;;;4.52;1.86;;;;;;;20.45;44.50;100686.38;;;;-53
2021/03/31 18:02:13;;;;;;;4.83;1.79;;;;;;;20.45;44.55;100687.36;;;;-52
2021/03/31 18:05:14;;;;;;;4.19;1.90;;;;;;;20.44;44.43;100688.67;;;;-53
2021/03/31 18:08:13;;;;;;;2.34;1.71;;;;;;;20.44;44.42;100693.95;;;;-53
2021/03/31 18:11:13;;;;;;;2.50;1.73;;;;;;;20.44;44.39;100695.88;;;;-53
2021/03/31 18:14:14;;;;;;;2.51;1.71;;;;;;;20.45;44.42;100697.94;;;;-54
2021/03/31 18:17:14;;;;;;;1.95;1.60;;;;;;;20.44;44.35;100698.44;;;;-53